createdAt,value
2017-09-06T00:00:01.510Z,2.70
2017-09-06T00:00:05.759Z,2.80
2017-09-06T00:00:09.985Z,2.80
2017-09-06T00:00:14.235Z,2.63
2017-09-06T00:00:18.504Z,2.55
2017-09-06T00:00:22.757Z,2.20
2017-09-06T00:00:26.973Z,2.35
2017-09-06T00:00:31.251Z,3.10
2017-09-06T00:00:35.503Z,3.30
2017-09-06T00:00:39.733Z,3.40
2017-09-06T00:00:44.753Z,3.40
2017-09-06T00:00:49.017Z,3.40
2017-09-06T00:00:53.270Z,3.37
2017-09-06T00:00:57.552Z,3.30
2017-09-06T00:01:01.773Z,3.20
2017-09-06T00:01:06.018Z,3.20
2017-09-06T00:01:10.272Z,3.13
2017-09-06T00:01:14.505Z,3.20
2017-09-06T00:01:18.762Z,3.10
2017-09-06T00:01:22.989Z,3.45
2017-09-06T00:01:27.260Z,3.43
2017-09-06T00:01:31.756Z,2.65
2017-09-06T00:01:35.995Z,2.50
2017-09-06T00:01:40.226Z,2.55
2017-09-06T00:01:44.459Z,2.70
2017-09-06T00:01:48.703Z,2.80
2017-09-06T00:01:52.961Z,2.83
2017-09-06T00:01:57.255Z,2.90
2017-09-06T00:02:01.497Z,2.95
2017-09-06T00:02:05.751Z,3.00
2017-09-06T00:02:10.012Z,2.97
2017-09-06T00:02:14.255Z,2.90
2017-09-06T00:02:18.487Z,2.95
2017-09-06T00:02:22.740Z,2.85
2017-09-06T00:02:27.004Z,2.80
2017-09-06T00:02:31.262Z,2.80
2017-09-06T00:02:35.537Z,2.80
2017-09-06T00:02:39.743Z,2.80
2017-09-06T00:02:43.993Z,2.80
2017-09-06T00:02:48.257Z,2.70
2017-09-06T00:02:52.507Z,2.65
2017-09-06T00:02:56.772Z,2.60
2017-09-06T00:03:01.033Z,2.60
2017-09-06T00:03:05.270Z,2.50
2017-09-06T00:03:09.511Z,2.55
2017-09-06T00:03:13.762Z,2.60
2017-09-06T00:03:17.988Z,2.60
2017-09-06T00:03:22.228Z,2.60
2017-09-06T00:03:26.464Z,2.60
2017-09-06T00:03:30.717Z,2.53
2017-09-06T00:03:34.965Z,2.50
2017-09-06T00:03:39.246Z,2.50
2017-09-06T00:03:43.499Z,2.60
2017-09-06T00:03:47.775Z,2.77
2017-09-06T00:03:52.006Z,2.80
2017-09-06T00:03:56.254Z,2.60
2017-09-06T00:04:00.477Z,2.65
2017-09-06T00:04:04.718Z,2.90
2017-09-06T00:04:08.953Z,3.00
2017-09-06T00:04:13.185Z,3.00
2017-09-06T00:04:17.431Z,3.40
2017-09-06T00:04:21.693Z,3.63
2017-09-06T00:04:25.977Z,3.80
2017-09-06T00:04:30.223Z,4.00
2017-09-06T00:04:34.474Z,4.07
2017-09-06T00:04:38.722Z,4.10
2017-09-06T00:04:42.991Z,3.95
2017-09-06T00:04:47.239Z,3.80
2017-09-06T00:04:51.504Z,4.10
2017-09-06T00:04:55.728Z,4.10
2017-09-06T00:04:59.980Z,4.05
2017-09-06T00:05:04.228Z,3.95
2017-09-06T00:05:08.479Z,4.00
2017-09-06T00:05:12.737Z,4.00
2017-09-06T00:05:16.987Z,3.70
2017-09-06T00:05:21.233Z,3.85
2017-09-06T00:05:25.491Z,3.77
2017-09-06T00:05:29.725Z,3.60
2017-09-06T00:05:33.971Z,3.65
2017-09-06T00:05:38.205Z,3.70
2017-09-06T00:05:42.458Z,5.20
2017-09-06T00:05:46.685Z,5.25
2017-09-06T00:05:50.949Z,5.10
2017-09-06T00:05:55.196Z,5.00
2017-09-06T00:06:00.215Z,4.97
2017-09-06T00:06:04.497Z,4.70
2017-09-06T00:06:08.740Z,4.55
2017-09-06T00:06:12.988Z,4.50
2017-09-06T00:06:17.236Z,4.30
2017-09-06T00:06:21.489Z,3.85
2017-09-06T00:06:25.724Z,3.70
2017-09-06T00:06:29.946Z,3.70
2017-09-06T00:06:34.189Z,3.63
2017-09-06T00:06:38.433Z,3.35
2017-09-06T00:06:42.666Z,2.10
2017-09-06T00:06:46.889Z,2.15
2017-09-06T00:06:51.145Z,2.17
2017-09-06T00:06:55.405Z,2.20
2017-09-06T00:06:59.634Z,2.20
2017-09-06T00:07:03.869Z,2.20
2017-09-06T00:07:08.136Z,2.20
2017-09-06T00:07:12.377Z,2.20
2017-09-06T00:07:16.628Z,2.20
2017-09-06T00:07:20.899Z,2.30
2017-09-06T00:07:25.141Z,2.37
2017-09-06T00:07:29.392Z,2.40
2017-09-06T00:07:33.642Z,2.40
2017-09-06T00:07:37.874Z,2.50
2017-09-06T00:07:42.137Z,2.50
2017-09-06T00:07:46.374Z,2.50
2017-09-06T00:07:50.645Z,2.60
2017-09-06T00:07:54.886Z,2.60
2017-09-06T00:07:59.121Z,2.60
2017-09-06T00:08:03.418Z,2.60
2017-09-06T00:08:07.656Z,2.60
2017-09-06T00:08:11.940Z,2.70
2017-09-06T00:08:16.169Z,2.80
2017-09-06T00:08:20.408Z,2.90
2017-09-06T00:08:24.636Z,2.90
2017-09-06T00:08:28.889Z,3.10
2017-09-06T00:08:33.138Z,3.20
2017-09-06T00:08:37.380Z,3.20
2017-09-06T00:08:41.605Z,3.30
2017-09-06T00:08:45.876Z,3.87
2017-09-06T00:08:50.107Z,3.65
2017-09-06T00:08:54.355Z,3.85
2017-09-06T00:08:58.585Z,4.00
2017-09-06T00:09:02.875Z,4.00
2017-09-06T00:09:07.907Z,4.10
2017-09-06T00:09:12.148Z,3.67
2017-09-06T00:09:16.391Z,4.20
2017-09-06T00:09:20.643Z,4.30
2017-09-06T00:09:24.884Z,4.25
2017-09-06T00:09:29.106Z,4.00
2017-09-06T00:09:33.353Z,4.00
2017-09-06T00:09:37.591Z,4.00
2017-09-06T00:09:41.874Z,3.70
2017-09-06T00:09:46.129Z,3.35
2017-09-06T00:09:50.368Z,3.35
2017-09-06T00:09:54.629Z,3.00
2017-09-06T00:09:58.895Z,2.90
2017-09-06T00:10:03.136Z,2.90
2017-09-06T00:10:07.370Z,2.90
2017-09-06T00:10:11.627Z,2.90
2017-09-06T00:10:15.845Z,2.60
2017-09-06T00:10:20.094Z,2.50
2017-09-06T00:10:24.360Z,2.50
2017-09-06T00:10:28.601Z,2.50
2017-09-06T00:10:32.872Z,2.50
2017-09-06T00:10:37.120Z,2.40
2017-09-06T00:10:41.369Z,2.50
2017-09-06T00:10:45.620Z,2.70
2017-09-06T00:10:49.879Z,3.30
2017-09-06T00:10:54.150Z,3.30
2017-09-06T00:10:58.408Z,3.30
2017-09-06T00:11:02.651Z,3.20
2017-09-06T00:11:06.899Z,3.40
2017-09-06T00:11:11.149Z,3.40
2017-09-06T00:11:15.399Z,3.40
2017-09-06T00:11:19.643Z,3.50
2017-09-06T00:11:23.887Z,3.50
2017-09-06T00:11:28.129Z,3.50
2017-09-06T00:11:32.402Z,3.50
2017-09-06T00:11:36.626Z,3.25
2017-09-06T00:11:40.869Z,3.10
2017-09-06T00:11:45.170Z,3.05
2017-09-06T00:11:49.408Z,2.73
2017-09-06T00:11:53.677Z,2.70
2017-09-06T00:11:57.906Z,2.70
2017-09-06T00:12:02.151Z,2.70
2017-09-06T00:12:06.389Z,2.45
2017-09-06T00:12:10.636Z,2.50
2017-09-06T00:12:14.870Z,2.40
2017-09-06T00:12:19.109Z,2.40
2017-09-06T00:12:23.345Z,2.30
2017-09-06T00:12:27.577Z,2.30
2017-09-06T00:12:31.832Z,2.30
2017-09-06T00:12:36.371Z,2.30
2017-09-06T00:12:40.593Z,2.30
2017-09-06T00:12:44.825Z,2.30
2017-09-06T00:12:49.091Z,2.20
2017-09-06T00:12:53.317Z,2.30
2017-09-06T00:12:57.573Z,2.30
2017-09-06T00:13:02.578Z,2.30
2017-09-06T00:13:06.835Z,2.30
2017-09-06T00:13:11.100Z,2.30
2017-09-06T00:13:15.330Z,2.40
2017-09-06T00:13:19.566Z,2.30
2017-09-06T00:13:23.828Z,2.35
2017-09-06T00:13:28.064Z,2.40
2017-09-06T00:13:32.328Z,2.40
2017-09-06T00:13:36.568Z,2.45
2017-09-06T00:13:40.801Z,2.50
2017-09-06T00:13:45.047Z,2.40
2017-09-06T00:13:49.307Z,2.40
2017-09-06T00:13:53.542Z,2.40
2017-09-06T00:13:57.813Z,2.30
2017-09-06T00:14:02.068Z,2.30
2017-09-06T00:14:06.293Z,2.30
2017-09-06T00:14:10.533Z,2.20
2017-09-06T00:14:14.815Z,2.20
2017-09-06T00:14:19.056Z,2.25
2017-09-06T00:14:23.503Z,2.25
2017-09-06T00:14:27.808Z,2.20
2017-09-06T00:14:32.031Z,2.20
2017-09-06T00:14:36.276Z,2.15
2017-09-06T00:14:40.628Z,2.10
2017-09-06T00:14:44.852Z,2.10
2017-09-06T00:14:49.161Z,2.10
2017-09-06T00:14:53.381Z,2.10
2017-09-06T00:14:57.639Z,2.20
2017-09-06T00:15:01.874Z,2.20
2017-09-06T00:15:06.109Z,2.30
2017-09-06T00:15:10.339Z,2.40
2017-09-06T00:15:14.574Z,2.50
2017-09-06T00:15:18.826Z,2.40
2017-09-06T00:15:23.082Z,2.60
2017-09-06T00:15:27.309Z,2.60
2017-09-06T00:15:31.555Z,2.50
2017-09-06T00:15:35.795Z,2.50
2017-09-06T00:15:40.030Z,2.50
2017-09-06T00:15:44.273Z,2.60
2017-09-06T00:15:48.532Z,2.63
2017-09-06T00:15:52.794Z,2.70
2017-09-06T00:15:57.032Z,2.70
2017-09-06T00:16:01.261Z,2.65
2017-09-06T00:16:05.506Z,2.53
2017-09-06T00:16:09.749Z,2.50
2017-09-06T00:16:13.969Z,2.40
2017-09-06T00:16:18.215Z,2.50
2017-09-06T00:16:22.437Z,2.50
2017-09-06T00:16:26.670Z,2.50
2017-09-06T00:16:30.914Z,2.50
2017-09-06T00:16:35.145Z,2.60
2017-09-06T00:16:39.441Z,2.60
2017-09-06T00:16:43.694Z,2.60
2017-09-06T00:16:47.930Z,2.55
2017-09-06T00:16:52.192Z,2.50
2017-09-06T00:16:56.437Z,2.50
2017-09-06T00:17:00.683Z,2.60
2017-09-06T00:17:04.940Z,2.70
2017-09-06T00:17:09.168Z,2.60
2017-09-06T00:17:13.455Z,2.60
2017-09-06T00:17:17.708Z,2.50
2017-09-06T00:17:21.948Z,2.50
2017-09-06T00:17:26.189Z,2.60
2017-09-06T00:17:30.427Z,2.55
2017-09-06T00:17:34.671Z,2.50
2017-09-06T00:17:39.575Z,2.45
2017-09-06T00:17:43.809Z,2.40
2017-09-06T00:17:48.050Z,2.50
2017-09-06T00:17:52.297Z,2.70
2017-09-06T00:17:56.543Z,2.60
2017-09-06T00:18:00.796Z,2.55
2017-09-06T00:18:05.100Z,2.40
2017-09-06T00:18:09.321Z,2.40
2017-09-06T00:18:13.583Z,2.45
2017-09-06T00:18:17.840Z,2.60
2017-09-06T00:18:22.082Z,2.60
2017-09-06T00:18:27.112Z,2.60
2017-09-06T00:18:31.347Z,2.70
2017-09-06T00:18:35.589Z,2.70
2017-09-06T00:18:39.836Z,2.65
2017-09-06T00:18:44.099Z,2.40
2017-09-06T00:18:49.307Z,2.30
2017-09-06T00:18:53.553Z,2.30
2017-09-06T00:18:57.791Z,2.30
2017-09-06T00:19:02.026Z,2.43
2017-09-06T00:19:06.273Z,2.60
2017-09-06T00:19:10.519Z,2.60
2017-09-06T00:19:14.757Z,2.55
2017-09-06T00:19:19.001Z,2.60
2017-09-06T00:19:23.247Z,2.60
2017-09-06T00:19:27.495Z,2.75
2017-09-06T00:19:31.749Z,2.85
2017-09-06T00:19:36.011Z,2.80
2017-09-06T00:19:40.237Z,2.95
2017-09-06T00:19:44.501Z,3.10
2017-09-06T00:19:48.734Z,3.10
2017-09-06T00:19:52.968Z,3.10
2017-09-06T00:19:57.229Z,3.20
2017-09-06T00:20:01.472Z,3.25
2017-09-06T00:20:05.706Z,3.50
2017-09-06T00:20:09.943Z,3.50
2017-09-06T00:20:14.177Z,3.55
2017-09-06T00:20:18.405Z,3.50
2017-09-06T00:20:23.400Z,3.60
2017-09-06T00:20:27.678Z,3.37
2017-09-06T00:20:31.923Z,3.20
2017-09-06T00:20:36.291Z,3.20
2017-09-06T00:20:40.529Z,3.07
2017-09-06T00:20:44.801Z,3.00
2017-09-06T00:20:49.033Z,3.00
2017-09-06T00:20:53.266Z,3.00
2017-09-06T00:20:57.497Z,2.80
2017-09-06T00:21:01.738Z,2.35
2017-09-06T00:21:05.984Z,2.20
2017-09-06T00:21:10.221Z,2.20
2017-09-06T00:21:14.467Z,2.20
2017-09-06T00:21:18.689Z,2.20
2017-09-06T00:21:22.921Z,2.10
2017-09-06T00:21:27.167Z,1.90
2017-09-06T00:21:31.401Z,2.13
2017-09-06T00:21:35.643Z,2.30
2017-09-06T00:21:39.900Z,2.40
2017-09-06T00:21:44.126Z,2.40
2017-09-06T00:21:48.395Z,2.53
2017-09-06T00:21:52.639Z,2.65
2017-09-06T00:21:56.880Z,2.70
2017-09-06T00:22:01.109Z,2.70
2017-09-06T00:22:05.360Z,2.87
2017-09-06T00:22:09.633Z,3.05
2017-09-06T00:22:13.892Z,3.10
2017-09-06T00:22:18.127Z,3.10
2017-09-06T00:22:22.390Z,3.20
2017-09-06T00:22:26.625Z,3.20
2017-09-06T00:22:30.880Z,2.90
2017-09-06T00:22:35.120Z,2.60
2017-09-06T00:22:39.388Z,2.60
2017-09-06T00:22:43.674Z,2.85
2017-09-06T00:22:47.902Z,2.85
2017-09-06T00:22:52.139Z,2.70
2017-09-06T00:22:56.378Z,2.60
2017-09-06T00:23:00.610Z,2.60
2017-09-06T00:23:04.899Z,2.45
2017-09-06T00:23:09.129Z,2.20
2017-09-06T00:23:13.389Z,2.20
2017-09-06T00:23:17.616Z,2.20
2017-09-06T00:23:21.846Z,2.20
2017-09-06T00:23:26.096Z,2.30
2017-09-06T00:23:30.333Z,2.25
2017-09-06T00:23:34.596Z,2.20
2017-09-06T00:23:38.867Z,2.25
2017-09-06T00:23:43.128Z,2.20
2017-09-06T00:23:47.395Z,2.20
2017-09-06T00:23:51.621Z,2.15
2017-09-06T00:23:55.876Z,2.20
2017-09-06T00:24:00.159Z,2.20
2017-09-06T00:24:04.385Z,2.20
2017-09-06T00:24:08.613Z,2.30
2017-09-06T00:24:12.886Z,2.57
2017-09-06T00:24:17.138Z,2.70
2017-09-06T00:24:21.401Z,2.70
2017-09-06T00:24:25.617Z,2.75
2017-09-06T00:24:29.863Z,2.80
2017-09-06T00:24:34.097Z,2.95
2017-09-06T00:24:38.349Z,2.95
2017-09-06T00:24:42.575Z,2.95
2017-09-06T00:24:46.801Z,3.03
2017-09-06T00:24:51.060Z,3.20
2017-09-06T00:24:55.292Z,3.10
2017-09-06T00:24:59.522Z,3.00
2017-09-06T00:25:04.526Z,2.90
2017-09-06T00:25:08.783Z,3.00
2017-09-06T00:25:13.021Z,2.75
2017-09-06T00:25:17.271Z,2.85
2017-09-06T00:25:21.507Z,3.00
2017-09-06T00:25:25.780Z,3.00
2017-09-06T00:25:30.005Z,2.90
2017-09-06T00:25:34.249Z,2.70
2017-09-06T00:25:38.482Z,2.70
2017-09-06T00:25:42.772Z,2.60
2017-09-06T00:25:47.010Z,2.65
2017-09-06T00:25:51.265Z,2.50
2017-09-06T00:25:55.509Z,2.60
2017-09-06T00:25:59.766Z,2.60
2017-09-06T00:26:04.006Z,2.60
2017-09-06T00:26:08.260Z,2.45
2017-09-06T00:26:12.532Z,2.37
2017-09-06T00:26:16.799Z,2.25
2017-09-06T00:26:21.033Z,2.00
2017-09-06T00:26:25.265Z,1.80
2017-09-06T00:26:29.515Z,1.80
2017-09-06T00:26:33.768Z,1.80
2017-09-06T00:26:38.001Z,1.90
2017-09-06T00:26:42.242Z,1.90
2017-09-06T00:26:47.257Z,1.77
2017-09-06T00:26:51.520Z,1.77
2017-09-06T00:26:55.764Z,1.90
2017-09-06T00:26:59.994Z,2.00
2017-09-06T00:27:04.230Z,2.00
2017-09-06T00:27:08.495Z,2.10
2017-09-06T00:27:12.739Z,2.25
2017-09-06T00:27:16.986Z,2.40
2017-09-06T00:27:21.215Z,2.50
2017-09-06T00:27:25.494Z,2.43
2017-09-06T00:27:29.717Z,2.40
2017-09-06T00:27:34.018Z,2.45
2017-09-06T00:27:38.249Z,2.33
2017-09-06T00:27:42.489Z,2.30
2017-09-06T00:27:46.721Z,2.30
2017-09-06T00:27:51.015Z,2.40
2017-09-06T00:27:55.267Z,2.27
2017-09-06T00:27:59.510Z,2.10
2017-09-06T00:28:03.737Z,2.10
2017-09-06T00:28:08.020Z,2.10
2017-09-06T00:28:12.282Z,1.90
2017-09-06T00:28:16.530Z,1.90
2017-09-06T00:28:20.769Z,1.90
2017-09-06T00:28:25.754Z,2.00
2017-09-06T00:28:29.985Z,2.00
2017-09-06T00:28:34.238Z,2.00
2017-09-06T00:28:38.486Z,2.00
2017-09-06T00:28:42.757Z,2.00
2017-09-06T00:28:46.984Z,1.90
2017-09-06T00:28:51.263Z,1.90
2017-09-06T00:28:55.490Z,2.00
2017-09-06T00:28:59.735Z,2.20
2017-09-06T00:29:03.978Z,2.40
2017-09-06T00:29:08.236Z,2.37
2017-09-06T00:29:12.466Z,2.30
2017-09-06T00:29:16.732Z,2.45
2017-09-06T00:29:20.977Z,3.10
2017-09-06T00:29:25.210Z,3.00
2017-09-06T00:29:29.455Z,2.90
2017-09-06T00:29:33.713Z,2.90
2017-09-06T00:29:37.946Z,3.27
2017-09-06T00:29:42.174Z,3.35
2017-09-06T00:29:46.431Z,3.40
2017-09-06T00:29:50.672Z,3.35
2017-09-06T00:29:54.956Z,3.33
2017-09-06T00:29:59.195Z,3.80
2017-09-06T00:30:03.435Z,3.60
2017-09-06T00:30:07.681Z,3.70
2017-09-06T00:30:11.947Z,3.60
2017-09-06T00:30:16.191Z,3.40
2017-09-06T00:30:20.433Z,2.60
2017-09-06T00:30:24.722Z,2.70
2017-09-06T00:30:28.965Z,2.67
2017-09-06T00:30:33.211Z,2.75
2017-09-06T00:30:37.451Z,2.50
2017-09-06T00:30:41.681Z,2.40
2017-09-06T00:30:45.943Z,2.40
2017-09-06T00:30:50.171Z,2.55
2017-09-06T00:30:54.419Z,2.90
2017-09-06T00:30:58.664Z,2.60
2017-09-06T00:31:02.902Z,2.55
2017-09-06T00:31:07.145Z,2.50
2017-09-06T00:31:11.369Z,2.60
2017-09-06T00:31:15.655Z,2.67
2017-09-06T00:31:19.955Z,3.10
2017-09-06T00:31:24.163Z,3.10
2017-09-06T00:31:28.393Z,3.20
2017-09-06T00:31:32.636Z,3.10
2017-09-06T00:31:36.883Z,3.10
2017-09-06T00:31:41.110Z,3.10
2017-09-06T00:31:45.338Z,3.10
2017-09-06T00:31:49.573Z,2.97
2017-09-06T00:31:53.884Z,2.55
2017-09-06T00:31:58.134Z,2.15
2017-09-06T00:32:02.365Z,2.00
2017-09-06T00:32:06.654Z,2.10
2017-09-06T00:32:10.892Z,2.10
2017-09-06T00:32:15.125Z,2.00
2017-09-06T00:32:19.366Z,1.80
2017-09-06T00:32:23.624Z,1.83
2017-09-06T00:32:27.868Z,2.00
2017-09-06T00:32:32.113Z,2.00
2017-09-06T00:32:36.380Z,1.90
2017-09-06T00:32:40.640Z,1.90
2017-09-06T00:32:44.886Z,1.90
2017-09-06T00:32:49.887Z,2.00
2017-09-06T00:32:54.114Z,2.00
2017-09-06T00:32:58.337Z,2.00
2017-09-06T00:33:02.595Z,1.90
2017-09-06T00:33:06.840Z,1.90
2017-09-06T00:33:11.117Z,2.00
2017-09-06T00:33:15.367Z,2.10
2017-09-06T00:33:19.611Z,2.05
2017-09-06T00:33:23.861Z,1.90
2017-09-06T00:33:28.096Z,1.70
2017-09-06T00:33:32.341Z,1.70
2017-09-06T00:33:36.591Z,1.70
2017-09-06T00:33:40.814Z,1.90
2017-09-06T00:33:45.045Z,1.95
2017-09-06T00:33:49.285Z,1.93
2017-09-06T00:33:53.526Z,2.00
2017-09-06T00:33:57.780Z,2.10
2017-09-06T00:34:02.060Z,2.10
2017-09-06T00:34:06.317Z,2.10
2017-09-06T00:34:10.549Z,2.10
2017-09-06T00:34:14.781Z,2.10
2017-09-06T00:34:19.019Z,2.10
2017-09-06T00:34:23.292Z,2.10
2017-09-06T00:34:27.539Z,2.10
2017-09-06T00:34:31.777Z,2.10
2017-09-06T00:34:36.034Z,2.00
2017-09-06T00:34:40.293Z,2.00
2017-09-06T00:34:45.307Z,2.00
2017-09-06T00:34:49.547Z,2.00
2017-09-06T00:34:53.795Z,1.90
2017-09-06T00:34:58.051Z,1.90
2017-09-06T00:35:02.278Z,1.90
2017-09-06T00:35:06.541Z,1.75
2017-09-06T00:35:10.787Z,1.75
2017-09-06T00:35:15.026Z,1.70
2017-09-06T00:35:19.277Z,1.80
2017-09-06T00:35:23.510Z,1.80
2017-09-06T00:35:27.784Z,1.70
2017-09-06T00:35:32.035Z,1.80
2017-09-06T00:35:36.283Z,1.70
2017-09-06T00:35:40.518Z,1.70
2017-09-06T00:35:44.765Z,1.60
2017-09-06T00:35:49.043Z,1.60
2017-09-06T00:35:53.273Z,1.60
2017-09-06T00:35:57.509Z,1.60
2017-09-06T00:36:01.771Z,1.50
2017-09-06T00:36:06.011Z,2.00
2017-09-06T00:36:10.254Z,2.10
2017-09-06T00:36:14.491Z,2.10
2017-09-06T00:36:18.721Z,2.00
2017-09-06T00:36:22.967Z,2.05
2017-09-06T00:36:27.193Z,2.10
2017-09-06T00:36:31.434Z,2.10
2017-09-06T00:36:35.674Z,2.27
2017-09-06T00:36:39.919Z,2.30
2017-09-06T00:36:44.154Z,2.30
2017-09-06T00:36:48.392Z,2.30
2017-09-06T00:36:52.663Z,3.10
2017-09-06T00:36:56.889Z,3.40
2017-09-06T00:37:01.140Z,3.65
2017-09-06T00:37:05.368Z,3.30
2017-09-06T00:37:09.626Z,3.10
2017-09-06T00:37:13.952Z,3.10
2017-09-06T00:37:18.173Z,3.10
2017-09-06T00:37:22.427Z,3.10
2017-09-06T00:37:26.725Z,3.07
2017-09-06T00:37:30.961Z,3.10
2017-09-06T00:37:35.209Z,2.95
2017-09-06T00:37:39.484Z,2.90
2017-09-06T00:37:43.712Z,2.90
2017-09-06T00:37:47.938Z,2.80
2017-09-06T00:37:52.180Z,2.00
2017-09-06T00:37:56.434Z,1.70
2017-09-06T00:38:00.675Z,1.60
2017-09-06T00:38:04.929Z,1.75
2017-09-06T00:38:09.183Z,1.95
2017-09-06T00:38:13.454Z,2.00
2017-09-06T00:38:17.702Z,2.00
2017-09-06T00:38:21.934Z,1.90
2017-09-06T00:38:26.180Z,1.90
2017-09-06T00:38:30.428Z,2.10
2017-09-06T00:38:34.668Z,2.15
2017-09-06T00:38:38.916Z,2.10
2017-09-06T00:38:43.167Z,2.10
2017-09-06T00:38:47.411Z,2.13
2017-09-06T00:38:51.700Z,2.55
2017-09-06T00:38:55.921Z,2.90
2017-09-06T00:39:00.167Z,3.25
2017-09-06T00:39:04.436Z,3.03
2017-09-06T00:39:08.666Z,2.80
2017-09-06T00:39:12.973Z,2.80
2017-09-06T00:39:17.215Z,2.83
2017-09-06T00:39:21.460Z,3.00
2017-09-06T00:39:25.704Z,3.10
2017-09-06T00:39:29.956Z,3.00
2017-09-06T00:39:34.215Z,3.00
2017-09-06T00:39:38.467Z,3.10
2017-09-06T00:39:42.714Z,3.20
2017-09-06T00:39:47.709Z,3.30
2017-09-06T00:39:52.016Z,3.00
2017-09-06T00:39:56.263Z,2.53
2017-09-06T00:40:00.516Z,2.15
2017-09-06T00:40:04.759Z,2.20
2017-09-06T00:40:09.005Z,2.17
2017-09-06T00:40:13.266Z,2.20
2017-09-06T00:40:17.498Z,2.30
2017-09-06T00:40:21.733Z,2.30
2017-09-06T00:40:25.991Z,2.10
2017-09-06T00:40:30.217Z,2.10
2017-09-06T00:40:34.467Z,2.10
2017-09-06T00:40:38.712Z,2.10
2017-09-06T00:40:42.935Z,2.10
2017-09-06T00:40:47.202Z,2.10
2017-09-06T00:40:51.447Z,2.10
2017-09-06T00:40:55.665Z,2.10
2017-09-06T00:40:59.945Z,2.00
2017-09-06T00:41:04.192Z,2.00
2017-09-06T00:41:08.422Z,2.00
2017-09-06T00:41:12.668Z,2.00
2017-09-06T00:41:16.902Z,2.00
2017-09-06T00:41:21.134Z,2.00
2017-09-06T00:41:25.404Z,2.00
2017-09-06T00:41:29.638Z,2.30
2017-09-06T00:41:34.640Z,2.23
2017-09-06T00:41:38.900Z,2.10
2017-09-06T00:41:43.129Z,2.10
2017-09-06T00:41:47.374Z,2.20
2017-09-06T00:41:51.661Z,2.20
2017-09-06T00:41:55.959Z,2.37
2017-09-06T00:42:00.219Z,2.35
2017-09-06T00:42:04.472Z,2.40
2017-09-06T00:42:08.719Z,2.50
2017-09-06T00:42:12.974Z,2.40
2017-09-06T00:42:17.286Z,2.40
2017-09-06T00:42:21.507Z,2.55
2017-09-06T00:42:25.737Z,2.57
2017-09-06T00:42:30.006Z,2.15
2017-09-06T00:42:34.266Z,2.25
2017-09-06T00:42:38.488Z,2.35
2017-09-06T00:42:42.784Z,2.50
2017-09-06T00:42:47.021Z,2.40
2017-09-06T00:42:51.241Z,2.40
2017-09-06T00:42:55.495Z,2.27
2017-09-06T00:42:59.745Z,2.30
2017-09-06T00:43:03.985Z,2.30
2017-09-06T00:43:08.216Z,2.30
2017-09-06T00:43:12.466Z,2.40
2017-09-06T00:43:16.732Z,2.25
2017-09-06T00:43:20.979Z,2.20
2017-09-06T00:43:25.261Z,2.10
2017-09-06T00:43:29.511Z,2.20
2017-09-06T00:43:33.737Z,2.25
2017-09-06T00:43:38.011Z,2.20
2017-09-06T00:43:42.250Z,2.20
2017-09-06T00:43:46.511Z,2.20
2017-09-06T00:43:50.732Z,2.20
2017-09-06T00:43:55.016Z,2.30
2017-09-06T00:43:59.286Z,2.20
2017-09-06T00:44:03.540Z,2.05
2017-09-06T00:44:07.784Z,2.00
2017-09-06T00:44:12.028Z,2.00
2017-09-06T00:44:16.276Z,2.13
2017-09-06T00:44:20.522Z,2.10
2017-09-06T00:44:24.788Z,2.15
2017-09-06T00:44:29.014Z,2.20
2017-09-06T00:44:33.263Z,2.27
2017-09-06T00:44:37.515Z,2.30
2017-09-06T00:44:41.781Z,2.30
2017-09-06T00:44:46.038Z,2.30
2017-09-06T00:44:50.288Z,3.20
2017-09-06T00:44:54.546Z,3.30
2017-09-06T00:44:58.802Z,3.55
2017-09-06T00:45:03.033Z,3.95
2017-09-06T00:45:07.303Z,4.03
2017-09-06T00:45:11.556Z,3.90
2017-09-06T00:45:15.803Z,3.55
2017-09-06T00:45:20.049Z,3.50
2017-09-06T00:45:24.307Z,3.50
2017-09-06T00:45:28.542Z,3.40
2017-09-06T00:45:32.777Z,3.35
2017-09-06T00:45:37.040Z,3.30
2017-09-06T00:45:41.300Z,3.30
2017-09-06T00:45:45.545Z,3.25
2017-09-06T00:45:49.797Z,2.40
2017-09-06T00:45:54.039Z,2.50
2017-09-06T00:45:58.283Z,2.30
2017-09-06T00:46:02.529Z,2.25
2017-09-06T00:46:06.761Z,2.50
2017-09-06T00:46:11.037Z,2.60
2017-09-06T00:46:15.292Z,2.70
2017-09-06T00:46:19.526Z,2.70
2017-09-06T00:46:23.793Z,2.70
2017-09-06T00:46:28.053Z,2.70
2017-09-06T00:46:33.084Z,2.70
2017-09-06T00:46:37.394Z,2.77
2017-09-06T00:46:41.625Z,2.60
2017-09-06T00:46:45.897Z,2.67
2017-09-06T00:46:50.148Z,2.55
2017-09-06T00:46:54.393Z,2.40
2017-09-06T00:46:58.625Z,2.35
2017-09-06T00:47:02.884Z,2.10
2017-09-06T00:47:07.140Z,1.95
2017-09-06T00:47:11.404Z,1.90
2017-09-06T00:47:15.659Z,2.05
2017-09-06T00:47:19.896Z,2.03
2017-09-06T00:47:24.143Z,2.00
2017-09-06T00:47:28.391Z,2.00
2017-09-06T00:47:32.644Z,2.00
2017-09-06T00:47:36.895Z,1.90
2017-09-06T00:47:41.178Z,2.00
2017-09-06T00:47:45.419Z,1.95
2017-09-06T00:47:49.671Z,1.90
2017-09-06T00:47:53.909Z,1.90
2017-09-06T00:47:58.161Z,2.00
2017-09-06T00:48:02.389Z,2.00
2017-09-06T00:48:06.662Z,1.87
2017-09-06T00:48:10.892Z,1.85
2017-09-06T00:48:15.139Z,1.70
2017-09-06T00:48:19.416Z,1.70
2017-09-06T00:48:23.662Z,1.70
2017-09-06T00:48:27.923Z,1.60
2017-09-06T00:48:32.137Z,1.70
2017-09-06T00:48:36.374Z,1.75
2017-09-06T00:48:40.614Z,1.83
2017-09-06T00:48:44.840Z,1.90
2017-09-06T00:48:49.087Z,2.00
2017-09-06T00:48:53.356Z,2.00
2017-09-06T00:48:57.598Z,1.90
2017-09-06T00:49:01.848Z,1.90
2017-09-06T00:49:06.069Z,2.05
2017-09-06T00:49:10.389Z,2.13
2017-09-06T00:49:14.621Z,2.20
2017-09-06T00:49:18.868Z,2.20
2017-09-06T00:49:23.098Z,2.20
2017-09-06T00:49:27.325Z,2.30
2017-09-06T00:49:31.633Z,2.20
2017-09-06T00:49:35.874Z,2.00
2017-09-06T00:49:40.164Z,2.10
2017-09-06T00:49:44.396Z,2.10
2017-09-06T00:49:48.635Z,2.10
2017-09-06T00:49:52.955Z,2.00
2017-09-06T00:49:57.195Z,2.00
2017-09-06T00:50:01.457Z,2.05
2017-09-06T00:50:05.702Z,2.00
2017-09-06T00:50:09.943Z,2.15
2017-09-06T00:50:14.188Z,2.10
2017-09-06T00:50:18.427Z,2.10
2017-09-06T00:50:22.666Z,2.20
2017-09-06T00:50:26.919Z,2.20
2017-09-06T00:50:31.178Z,2.20
2017-09-06T00:50:35.430Z,2.20
2017-09-06T00:50:39.650Z,2.25
2017-09-06T00:50:43.934Z,2.20
2017-09-06T00:50:48.183Z,2.30
2017-09-06T00:50:52.413Z,2.30
2017-09-06T00:50:56.661Z,2.30
2017-09-06T00:51:00.903Z,2.40
2017-09-06T00:51:05.137Z,2.40
2017-09-06T00:51:09.380Z,2.40
2017-09-06T00:51:13.619Z,2.40
2017-09-06T00:51:17.859Z,2.40
2017-09-06T00:51:22.124Z,2.40
2017-09-06T00:51:26.372Z,2.40
2017-09-06T00:51:30.602Z,2.40
2017-09-06T00:51:34.852Z,2.50
2017-09-06T00:51:39.111Z,2.50
2017-09-06T00:51:43.340Z,2.50
2017-09-06T00:51:47.569Z,2.40
2017-09-06T00:51:51.822Z,2.40
2017-09-06T00:51:56.091Z,2.40
2017-09-06T00:52:00.318Z,2.30
2017-09-06T00:52:04.559Z,2.20
2017-09-06T00:52:08.799Z,2.17
2017-09-06T00:52:13.072Z,2.10
2017-09-06T00:52:17.314Z,2.00
2017-09-06T00:52:21.568Z,2.00
2017-09-06T00:52:25.835Z,2.13
2017-09-06T00:52:30.084Z,2.10
2017-09-06T00:52:34.329Z,2.10
2017-09-06T00:52:38.578Z,2.10
2017-09-06T00:52:42.836Z,1.90
2017-09-06T00:52:47.087Z,2.00
2017-09-06T00:52:51.339Z,2.05
2017-09-06T00:52:55.612Z,2.10
2017-09-06T00:52:59.856Z,2.10
2017-09-06T00:53:04.096Z,2.10
2017-09-06T00:53:08.343Z,2.10
2017-09-06T00:53:12.592Z,2.10
2017-09-06T00:53:16.847Z,2.10
2017-09-06T00:53:21.094Z,2.10
2017-09-06T00:53:25.341Z,2.05
2017-09-06T00:53:29.587Z,2.00
2017-09-06T00:53:33.817Z,2.00
2017-09-06T00:53:38.067Z,2.00
2017-09-06T00:53:42.297Z,2.00
2017-09-06T00:53:46.533Z,2.10
2017-09-06T00:53:50.792Z,2.10
2017-09-06T00:53:55.035Z,2.00
2017-09-06T00:53:59.261Z,2.05
2017-09-06T00:54:03.522Z,2.10
2017-09-06T00:54:08.527Z,2.20
2017-09-06T00:54:12.765Z,2.20
2017-09-06T00:54:17.013Z,2.20
2017-09-06T00:54:21.253Z,2.20
2017-09-06T00:54:25.509Z,2.20
2017-09-06T00:54:29.756Z,2.20
2017-09-06T00:54:33.989Z,2.10
2017-09-06T00:54:39.009Z,2.10
2017-09-06T00:54:43.248Z,2.07
2017-09-06T00:54:47.515Z,2.00
2017-09-06T00:54:51.744Z,2.00
2017-09-06T00:54:55.983Z,2.00
2017-09-06T00:55:00.223Z,2.00
2017-09-06T00:55:04.470Z,2.00
2017-09-06T00:55:08.707Z,2.00
2017-09-06T00:55:12.932Z,2.00
2017-09-06T00:55:17.179Z,2.00
2017-09-06T00:55:21.432Z,2.03
2017-09-06T00:55:25.705Z,2.10
2017-09-06T00:55:29.942Z,2.00
2017-09-06T00:55:34.180Z,2.03
2017-09-06T00:55:38.426Z,2.10
2017-09-06T00:55:42.805Z,2.00
2017-09-06T00:55:47.283Z,2.10
2017-09-06T00:55:51.527Z,2.05
2017-09-06T00:55:55.774Z,2.10
2017-09-06T00:56:00.015Z,2.15
2017-09-06T00:56:04.266Z,2.27
2017-09-06T00:56:09.069Z,2.20
2017-09-06T00:56:13.331Z,2.10
2017-09-06T00:56:17.579Z,2.20
2017-09-06T00:56:21.827Z,2.20
2017-09-06T00:56:26.087Z,2.20
2017-09-06T00:56:30.335Z,2.20
2017-09-06T00:56:34.570Z,2.15
2017-09-06T00:56:38.818Z,2.10
2017-09-06T00:56:43.071Z,2.20
2017-09-06T00:56:47.321Z,2.50